Time;durP1;ratioP1;P1;durP2;ratioP2;P2;SDS_P1;SDS_P2;PMS_P1;PMS_P2;Temp;Humidity;BMP_temperature;BMP_pressure;BME280_temperature;BME280_humidity;BME280_pressure;Samples;Min_cycle;Max_cycle;Signal;HPM_P1;HPM_P2
2022/12/04 00:02:11;;;;;;;;;;;;;;;7.72;65.02;101199.25;5343708;32;34351;-68
2022/12/04 00:05:13;;;;;;;;;;;;;;;7.71;64.84;101202.78;5345265;32;34995;-69
2022/12/04 00:08:15;;;;;;;;;;;;;;;7.92;63.65;101202.47;5327899;32;35598;-73
2022/12/04 00:11:18;;;;;;;;;;;;;;;7.90;63.35;101193.75;5342298;32;35483;-69
2022/12/04 00:14:20;;;;;;;;;;;;;;;7.60;64.09;101201.19;5325519;32;34910;-73
2022/12/04 00:17:22;;;;;;;;;;;;;;;8.18;63.11;101206.41;5325768;32;35438;-70
2022/12/04 00:20:24;;;;;;;;;;;;;;;8.22;62.58;101200.25;5351232;32;35373;-72
2022/12/04 00:23:25;;;;;;;;;;;;;;;6.63;68.68;101210.16;5325952;32;34824;-73
2022/12/04 00:26:29;;;;;;;;;;;;;;;7.47;64.80;101204.84;5320022;32;34798;-68
2022/12/04 00:29:31;;;;;;;;;;;;;;;7.66;64.01;101201.97;5335454;32;34436;-73
2022/12/04 00:32:33;;;;;;;;;;;;;;;7.21;64.89;101213.03;5361127;32;34785;-73
2022/12/04 00:35:35;;;;;;;;;;;;;;;8.01;63.17;101212.78;5326202;32;36899;-75
2022/12/04 00:38:37;;;;;;;;;;;;;;;7.92;63.04;101218.19;5323963;32;35572;-73
2022/12/04 00:41:39;;;;;;;;;;;;;;;8.09;62.53;101216.16;5336909;32;45177;-72
2022/12/04 00:44:41;;;;;;;;;;;;;;;7.93;63.16;101209.44;5326860;32;34856;-69
2022/12/04 00:47:43;;;;;;;;;;;;;;;8.12;62.82;101205.66;5342660;32;35978;-74
2022/12/04 00:50:44;;;;;;;;;;;;;;;7.85;62.45;101198.19;5352349;32;35471;-73
2022/12/04 00:53:46;;;;;;;;;;;;;;;7.50;64.37;101198.72;5351025;32;34518;-70
2022/12/04 00:56:48;;;;;;;;;;;;;;;7.52;64.57;101207.38;5323816;32;35021;-74
2022/12/04 00:59:50;;;;;;;;;;;;;;;7.46;64.99;101212.69;5337122;32;34879;-69
2022/12/04 01:02:52;;;;;;;;;;;;;;;7.85;64.20;101209.53;5356658;32;37918;-70
2022/12/04 01:05:54;;;;;;;;;;;;;;;8.21;62.80;101209.00;5330247;32;35052;-69
2022/12/04 01:08:57;;;;;;;;;;;;;;;8.02;63.25;101204.03;5341430;32;35279;-70
2022/12/04 01:11:59;;;;;;;;;;;;;;;7.53;64.69;101204.75;5322886;32;34361;-69
2022/12/04 01:15:00;;;;;;;;;;;;;;;7.53;64.98;101215.22;5339365;32;35031;-69
2022/12/04 01:18:02;;;;;;;;;;;;;;;7.41;66.06;101206.69;5344778;32;35302;-72
2022/12/04 01:21:04;;;;;;;;;;;;;;;7.64;65.22;101207.22;5342435;32;35035;-68
2022/12/04 01:24:06;;;;;;;;;;;;;;;7.15;67.10;101212.22;5339852;32;34815;-69
2022/12/04 01:27:08;;;;;;;;;;;;;;;7.33;66.01;101214.59;5313844;32;44855;-73
2022/12/04 01:30:10;;;;;;;;;;;;;;;8.05;63.16;101209.25;5349529;32;36317;-73
2022/12/04 01:33:12;;;;;;;;;;;;;;;8.05;63.40;101209.25;5341130;32;35201;-69
2022/12/04 01:36:24;;;;;;;;;;;;;;;8.01;63.33;101218.03;5341398;32;34412;-72
2022/12/04 01:39:26;;;;;;;;;;;;;;;8.41;61.97;101212.19;5331443;32;35887;-68
2022/12/04 01:42:27;;;;;;;;;;;;;;;8.21;62.04;101212.47;5322299;32;35241;-70
2022/12/04 01:45:29;;;;;;;;;;;;;;;6.95;65.81;101210.69;5341726;32;34848;-74
2022/12/04 01:48:32;;;;;;;;;;;;;;;6.94;66.67;101210.72;5324479;32;34395;-68
2022/12/04 01:51:38;;;;;;;;;;;;;;;7.01;67.41;101215.84;5339455;32;34644;-68
2022/12/04 01:54:45;;;;;;;;;;;;;;;8.03;63.76;101211.00;5321592;32;44706;-72
2022/12/04 01:57:46;;;;;;;;;;;;;;;7.54;65.27;101216.09;5342231;32;34637;-69
2022/12/04 02:00:48;;;;;;;;;;;;;;;8.07;63.36;101215.31;5332431;32;34829;-69
2022/12/04 02:03:53;;;;;;;;;;;;;;;7.27;65.41;101193.75;5325694;32;35484;-72
2022/12/04 02:06:54;;;;;;;;;;;;;;;7.46;64.98;101199.63;5337745;32;35193;-72
2022/12/04 02:10:02;;;;;;;;;;;;;;;7.44;65.11;101197.03;5323525;32;34609;-74
2022/12/04 02:13:06;;;;;;;;;;;;;;;7.62;64.38;101189.84;5342076;32;35244;-71
2022/12/04 02:16:13;;;;;;;;;;;;;;;7.28;66.06;101199.00;5329361;32;44510;-72
2022/12/04 02:19:47;;;;;;;;;;;;;;;7.42;66.04;101193.59;5331471;32;35179;-74
2022/12/04 02:22:54;;;;;;;;;;;;;;;7.62;65.03;101187.22;5327214;32;35290;-69
2022/12/04 02:25:56;;;;;;;;;;;;;;;7.11;67.07;101192.25;5296498;32;35769;-72
2022/12/04 02:29:02;;;;;;;;;;;;;;;6.33;70.39;101200.91;5351236;32;35196;-68
2022/12/04 02:32:07;;;;;;;;;;;;;;;7.32;66.67;101194.56;5343573;32;33619;-69
2022/12/04 02:35:11;;;;;;;;;;;;;;;7.06;67.05;101201.00;5329124;32;44628;-73
2022/12/04 02:38:19;;;;;;;;;;;;;;;7.37;66.75;101198.00;5341008;32;35310;-72
2022/12/04 02:41:21;;;;;;;;;;;;;;;7.05;66.33;101191.44;5317754;32;35003;-72
2022/12/04 02:44:27;;;;;;;;;;;;;;;7.09;66.68;101183.56;5342025;32;35177;-69
2022/12/04 02:47:29;;;;;;;;;;;;;;;7.55;65.70;101195.16;5322012;32;35065;-72
2022/12/04 02:50:31;;;;;;;;;;;;;;;7.35;65.30;101205.00;5355924;32;35417;-70
2022/12/04 02:53:33;;;;;;;;;;;;;;;7.48;65.25;101201.34;5341752;32;35303;-73
2022/12/04 02:56:36;;;;;;;;;;;;;;;7.22;66.90;101204.31;5350770;32;33885;-68
2022/12/04 02:59:40;;;;;;;;;;;;;;;7.37;65.45;101192.78;5344145;32;46395;-69
2022/12/04 03:02:42;;;;;;;;;;;;;;;7.21;66.83;101194.75;5323155;32;35720;-72
2022/12/04 03:05:58;;;;;;;;;;;;;;;6.94;66.49;101198.50;5346903;32;35474;-72
2022/12/04 03:09:08;;;;;;;;;;;;;;;6.64;68.01;101191.88;5324510;32;35443;-68
2022/12/04 03:12:25;;;;;;;;;;;;;;;6.47;68.24;101191.19;5328160;32;45042;-69
2022/12/04 03:15:32;;;;;;;;;;;;;;;6.56;68.61;101190.22;5342911;32;35055;-73
2022/12/04 03:18:46;;;;;;;;;;;;;;;5.26;73.77;101198.94;5324451;32;35177;-73
2022/12/04 03:21:52;;;;;;;;;;;;;;;6.59;70.36;101196.28;5341716;32;35348;-72
2022/12/04 03:24:55;;;;;;;;;;;;;;;6.80;67.81;101189.97;5306739;32;35338;-73
2022/12/04 03:27:57;;;;;;;;;;;;;;;6.97;67.29;101187.19;5326752;32;35156;-74
2022/12/04 03:31:03;;;;;;;;;;;;;;;7.39;65.88;101182.28;5349053;32;34496;-69
2022/12/04 03:34:05;;;;;;;;;;;;;;;6.82;67.51;101188.19;5328143;32;34160;-69
2022/12/04 03:37:09;;;;;;;;;;;;;;;7.14;66.38;101189.56;5336738;32;34405;-68
2022/12/04 03:40:23;;;;;;;;;;;;;;;6.44;69.65;101191.19;5334181;32;44719;-74
2022/12/04 03:43:51;;;;;;;;;;;;;;;6.81;68.78;101191.69;5351013;32;34971;-68
2022/12/04 03:46:54;;;;;;;;;;;;;;;6.36;67.89;101183.44;5338147;32;35132;-73
2022/12/04 03:49:57;;;;;;;;;;;;;;;6.18;69.50;101186.19;5324190;32;35074;-73
2022/12/04 03:52:59;;;;;;;;;;;;;;;7.05;66.79;101190.56;5340460;32;34925;-69
2022/12/04 03:56:12;;;;;;;;;;;;;;;7.15;65.37;101188.69;5326437;32;35388;-68
2022/12/04 03:59:16;;;;;;;;;;;;;;;7.18;65.61;101199.97;5352725;32;44510;-69
2022/12/04 04:02:19;;;;;;;;;;;;;;;6.98;65.78;101194.13;5337441;32;35401;-70
2022/12/04 04:05:20;;;;;;;;;;;;;;;6.73;66.60;101198.75;5325210;32;35109;-70
2022/12/04 04:08:26;;;;;;;;;;;;;;;7.00;66.00;101198.44;5351128;32;35088;-74
2022/12/04 04:11:30;;;;;;;;;;;;;;;6.89;66.08;101189.87;5326473;32;35233;-68
2022/12/04 04:24:36;;;;;;;;;;;;;;;6.60;66.43;101197.16;5334429;32;35665;-74
2022/12/04 04:27:38;;;;;;;;;;;;;;;5.83;71.94;101208.19;5317101;32;45029;-68
2022/12/04 04:30:39;;;;;;;;;;;;;;;5.88;69.73;101201.19;5343048;32;34292;-69
2022/12/04 04:33:46;;;;;;;;;;;;;;;6.26;70.64;101200.06;5325872;32;35629;-72
2022/12/04 04:36:48;;;;;;;;;;;;;;;6.42;69.06;101203.41;5332393;32;35460;-69
2022/12/04 04:40:10;;;;;;;;;;;;;;;6.92;67.33;101204.66;5333533;32;34674;-69
2022/12/04 04:43:17;;;;;;;;;;;;;;;6.66;67.39;101197.97;5320643;32;42623;-69
2022/12/04 04:46:24;;;;;;;;;;;;;;;6.77;68.08;101205.69;5341474;32;34831;-73
2022/12/04 04:49:27;;;;;;;;;;;;;;;6.68;67.65;101196.19;5319937;32;35081;-69
2022/12/04 04:52:29;;;;;;;;;;;;;;;7.29;65.83;101189.41;5336384;32;35538;-73
2022/12/04 04:55:33;;;;;;;;;;;;;;;6.69;66.68;101199.66;5329348;32;34971;-73
2022/12/04 04:58:35;;;;;;;;;;;;;;;6.89;67.19;101189.87;5322558;32;37915;-69
2022/12/04 05:01:37;;;;;;;;;;;;;;;6.95;66.01;101194.16;5353696;32;35866;-72
2022/12/04 05:04:39;;;;;;;;;;;;;;;6.92;66.92;101204.66;5327703;32;44546;-73
2022/12/04 05:07:41;;;;;;;;;;;;;;;7.50;64.65;101196.97;5338882;32;35413;-74
2022/12/04 05:10:43;;;;;;;;;;;;;;;7.19;65.82;101198.22;5323842;32;35287;-73
2022/12/04 05:13:44;;;;;;;;;;;;;;;7.71;63.96;101197.53;5339416;32;34894;-73
2022/12/04 05:16:46;;;;;;;;;;;;;;;7.68;64.02;101195.84;5351931;32;35736;-68
2022/12/04 05:19:57;;;;;;;;;;;;;;;7.56;64.03;101193.41;5330051;32;35409;-69
2022/12/04 05:23:00;;;;;;;;;;;;;;;7.33;63.83;101193.69;5342211;32;35339;-74
2022/12/04 05:26:02;;;;;;;;;;;;;;;6.95;65.43;101197.62;5315150;32;34744;-73
2022/12/04 05:29:04;;;;;;;;;;;;;;;7.09;65.05;101194.03;5353119;32;34254;-73
2022/12/04 05:32:06;;;;;;;;;;;;;;;7.60;63.07;101193.34;5324530;32;36262;-69
2022/12/04 05:35:08;;;;;;;;;;;;;;;7.36;63.99;101193.66;5329091;32;46482;-69
2022/12/04 05:38:12;;;;;;;;;;;;;;;7.68;62.70;101181.91;5337364;32;35671;-69
2022/12/04 05:41:14;;;;;;;;;;;;;;;7.32;63.59;101187.59;5338477;32;35095;-71
2022/12/04 05:44:16;;;;;;;;;;;;;;;7.41;63.80;101186.63;5358063;32;34732;-69
2022/12/04 05:47:18;;;;;;;;;;;;;;;7.50;63.53;101183.88;5342953;32;34636;-72
2022/12/04 05:50:19;;;;;;;;;;;;;;;7.40;63.29;101187.50;5338975;32;35291;-68
2022/12/04 05:53:21;;;;;;;;;;;;;;;6.92;65.23;101189.84;5324162;32;34955;-73
2022/12/04 05:56:23;;;;;;;;;;;;;;;7.28;64.97;101177.22;5327489;32;35551;-68
2022/12/04 05:59:25;;;;;;;;;;;;;;;7.11;64.76;101185.25;5347741;32;35483;-69
2022/12/04 06:02:27;;;;;;;;;;;;;;;6.73;66.57;101197.00;5343193;32;34719;-72
2022/12/04 06:05:31;;;;;;;;;;;;;;;6.62;67.35;101204.06;5345723;32;34797;-72
2022/12/04 06:08:32;;;;;;;;;;;;;;;6.94;66.40;101195.91;5322579;32;35490;-70
2022/12/04 06:11:35;;;;;;;;;;;;;;;6.67;66.89;101197.06;5342444;32;35331;-72
2022/12/04 06:14:37;;;;;;;;;;;;;;;7.00;66.15;101193.22;5326725;32;45380;-72
2022/12/04 06:17:40;;;;;;;;;;;;;;;6.89;66.25;101184.66;5344075;32;45653;-69
2022/12/04 06:20:42;;;;;;;;;;;;;;;6.41;68.96;101197.31;5341594;32;34373;-72
2022/12/04 06:23:44;;;;;;;;;;;;;;;7.02;66.27;101204.53;5305789;32;34989;-72
2022/12/04 06:26:46;;;;;;;;;;;;;;;6.78;65.28;101212.66;5326770;32;35169;-68
2022/12/04 06:30:08;;;;;;;;;;;;;;;7.31;64.71;101206.78;5337358;32;45628;-68
2022/12/04 06:33:10;;;;;;;;;;;;;;;6.93;66.23;101212.47;5351786;32;35105;-69
2022/12/04 06:36:13;;;;;;;;;;;;;;;6.14;69.39;101213.22;5329930;32;34951;-73
2022/12/04 06:39:15;;;;;;;;;;;;;;;5.86;70.59;101213.41;5330952;32;35139;-74
2022/12/04 06:42:19;;;;;;;;;;;;;;;6.35;69.98;101220.88;5338324;32;35015;-71
2022/12/04 06:45:21;;;;;;;;;;;;;;;6.12;70.50;101215.00;5324399;32;34390;-69
2022/12/04 06:48:23;;;;;;;;;;;;;;;5.73;72.60;101214.31;5344765;32;36189;-72
2022/12/04 06:51:32;;;;;;;;;;;;;;;6.06;71.26;101218.50;5342750;32;35436;-68
2022/12/04 06:54:34;;;;;;;;;;;;;;;6.76;68.36;101204.84;5332997;32;34197;-70
2022/12/04 06:57:35;;;;;;;;;;;;;;;6.64;68.73;101215.41;5334579;32;36280;-69
2022/12/04 07:00:37;;;;;;;;;;;;;;;6.03;71.28;101209.81;5349989;32;46869;-70
2022/12/04 07:03:39;;;;;;;;;;;;;;;6.27;70.03;101208.78;5354459;32;35437;-69
2022/12/04 07:06:46;;;;;;;;;;;;;;;6.34;70.42;101203.47;5323667;32;36099;-72
2022/12/04 07:09:48;;;;;;;;;;;;;;;6.20;69.13;101208.81;5350696;32;35463;-72
2022/12/04 07:12:50;;;;;;;;;;;;;;;7.13;66.27;101203.53;5341219;32;35416;-69
2022/12/04 07:15:52;;;;;;;;;;;;;;;6.45;67.83;101217.31;5339939;32;34921;-74
2022/12/04 07:18:55;;;;;;;;;;;;;;;6.71;68.49;101216.19;5349579;32;35285;-72
2022/12/04 07:21:57;;;;;;;;;;;;;;;7.32;65.37;101195.44;5329349;32;35934;-72
2022/12/04 07:24:59;;;;;;;;;;;;;;;7.16;65.87;101225.28;5328380;32;35462;-70
2022/12/04 07:28:01;;;;;;;;;;;;;;;6.71;68.12;101218.81;5337727;32;35051;-69
2022/12/04 07:31:04;;;;;;;;;;;;;;;7.37;64.87;101211.09;5353443;32;34864;-69
2022/12/04 07:34:06;;;;;;;;;;;;;;;7.41;64.83;101211.91;5325039;32;35368;-72
2022/12/04 07:37:08;;;;;;;;;;;;;;;7.26;66.11;101212.97;5327900;32;44669;-69
2022/12/04 07:40:10;;;;;;;;;;;;;;;6.75;67.96;101204.81;5352446;32;35002;-72
2022/12/04 07:43:12;;;;;;;;;;;;;;;7.37;66.00;101211.09;5339716;32;35272;-69
2022/12/04 07:46:15;;;;;;;;;;;;;;;6.35;68.65;101218.25;5361568;32;34318;-69
2022/12/04 07:49:17;;;;;;;;;;;;;;;7.60;64.86;101197.72;5333600;32;35174;-72
2022/12/04 07:52:18;;;;;;;;;;;;;;;7.55;65.03;101207.38;5342471;32;34639;-69
2022/12/04 07:55:20;;;;;;;;;;;;;;;7.67;64.07;101207.19;5343855;32;34224;-73
2022/12/04 07:58:24;;;;;;;;;;;;;;;6.92;66.20;101215.97;5337144;32;34945;-74
2022/12/04 08:01:26;;;;;;;;;;;;;;;7.14;67.05;101200.03;5342374;32;34912;-70
2022/12/04 08:04:28;;;;;;;;;;;;;;;6.93;68.00;101216.84;5325145;32;35018;-73
2022/12/04 08:07:30;;;;;;;;;;;;;;;6.15;68.97;101204.50;5349239;32;34965;-68
2022/12/04 08:10:32;;;;;;;;;;;;;;;6.66;69.97;101212.75;5320702;32;35438;-75
2022/12/04 08:13:34;;;;;;;;;;;;;;;6.63;69.06;101199.72;5345380;32;34192;-73
2022/12/04 08:16:36;;;;;;;;;;;;;;;6.69;68.41;101216.19;5325171;32;34818;-74
2022/12/04 08:19:38;;;;;;;;;;;;;;;6.72;69.04;101218.78;5331700;32;46173;-68
2022/12/04 08:22:40;;;;;;;;;;;;;;;7.54;66.51;101213.50;5348399;32;35442;-70
2022/12/04 08:25:42;;;;;;;;;;;;;;;7.69;66.03;101209.78;5318788;32;35515;-75
2022/12/04 08:28:44;;;;;;;;;;;;;;;7.14;66.35;101205.25;5354298;32;35407;-75
2022/12/04 08:31:46;;;;;;;;;;;;;;;6.67;68.06;101197.06;5324988;32;35091;-73
2022/12/04 08:34:49;;;;;;;;;;;;;;;6.75;69.79;101192.63;5342266;32;34072;-69
2022/12/04 08:37:56;;;;;;;;;;;;;;;7.47;65.78;101191.78;5327193;32;34972;-73
2022/12/04 08:41:00;;;;;;;;;;;;;;;7.43;67.20;101199.69;5338819;32;34777;-69
2022/12/04 08:44:01;;;;;;;;;;;;;;;8.45;62.89;101198.16;5358349;32;35390;-73
2022/12/04 08:47:03;;;;;;;;;;;;;;;7.63;66.32;101205.50;5343676;32;35255;-69
2022/12/04 08:50:05;;;;;;;;;;;;;;;7.64;65.69;101198.50;5346743;32;33849;-69
2022/12/04 08:53:07;;;;;;;;;;;;;;;7.55;65.89;101196.91;5317160;32;45308;-73
2022/12/04 08:56:09;;;;;;;;;;;;;;;8.33;64.19;101214.03;5348925;32;35308;-73
2022/12/04 08:59:11;;;;;;;;;;;;;;;8.36;62.65;101193.91;5339155;32;36288;-68
2022/12/04 09:02:15;;;;;;;;;;;;;;;8.23;63.08;101201.97;5324264;32;35912;-68
2022/12/04 09:05:17;;;;;;;;;;;;;;;7.85;65.48;101209.53;5349240;32;34765;-70
2022/12/04 09:08:19;;;;;;;;;;;;;;;7.73;65.24;101212.34;5326339;32;34924;-70
2022/12/04 09:11:22;;;;;;;;;;;;;;;8.67;63.15;101209.09;5342324;32;34932;-72
2022/12/04 09:14:25;;;;;;;;;;;;;;;8.02;64.87;101204.03;5295140;32;948996;-74
2022/12/04 09:17:27;;;;;;;;;;;;;;;9.14;61.64;101192.44;5351362;32;35141;-69
2022/12/04 09:20:29;;;;;;;;;;;;;;;8.35;63.74;101204.38;5331325;32;34880;-69
2022/12/04 09:23:31;;;;;;;;;;;;;;;8.33;64.47;101188.72;5323033;32;35116;-75
2022/12/04 09:26:33;;;;;;;;;;;;;;;8.68;63.26;101190.72;5331245;32;34320;-69
2022/12/04 09:29:34;;;;;;;;;;;;;;;7.57;66.00;101195.97;5324503;32;34182;-69
2022/12/04 09:32:36;;;;;;;;;;;;;;;7.83;66.01;101192.13;5340150;32;35247;-73
2022/12/04 09:35:38;;;;;;;;;;;;;;;7.72;65.57;101194.03;5319536;32;43617;-74
2022/12/04 09:38:41;;;;;;;;;;;;;;;7.69;66.29;101187.09;5333229;32;35308;-75
2022/12/04 09:42:12;;;;;;;;;;;;;;;8.41;63.49;101178.97;5325348;32;35784;-73
2022/12/04 09:45:17;;;;;;;;;;;;;;;8.09;64.89;101173.41;5286232;32;43153;-69
2022/12/04 09:48:19;;;;;;;;;;;;;;;7.73;64.82;101172.19;5354902;32;34993;-69
2022/12/04 09:51:21;;;;;;;;;;;;;;;7.82;65.37;101164.22;5324717;32;34441;-73
2022/12/04 09:54:25;;;;;;;;;;;;;;;8.90;62.53;101158.87;5348171;32;34271;-73
2022/12/04 09:57:33;;;;;;;;;;;;;;;8.34;63.68;101161.63;5333132;32;34848;-69
2022/12/04 10:00:36;;;;;;;;;;;;;;;8.32;62.84;101149.44;5324630;32;34108;-73
2022/12/04 10:03:37;;;;;;;;;;;;;;;8.06;65.09;101150.75;5351235;32;44689;-73
2022/12/04 10:06:42;;;;;;;;;;;;;;;8.78;62.66;101139.00;5324302;32;34754;-69
2022/12/04 10:09:45;;;;;;;;;;;;;;;7.98;63.74;101146.53;5350253;32;34931;-70
2022/12/04 10:12:47;;;;;;;;;;;;;;;8.61;63.07;101131.44;5339653;32;34861;-69
2022/12/04 10:15:49;;;;;;;;;;;;;;;9.22;61.20;101127.59;5329944;32;34827;-73
2022/12/04 10:18:57;;;;;;;;;;;;;;;8.41;62.35;101134.44;5330360;32;34647;-70
2022/12/04 10:22:08;;;;;;;;;;;;;;;8.95;61.21;101121.19;5322794;32;35211;-73
2022/12/04 10:25:11;;;;;;;;;;;;;;;8.85;61.67;101121.41;5321422;32;44497;-69
2022/12/04 10:28:22;;;;;;;;;;;;;;;9.15;60.85;101115.50;5316449;32;35304;-74
2022/12/04 10:31:24;;;;;;;;;;;;;;;9.20;59.81;101113.62;5358410;32;36602;-69
2022/12/04 10:34:27;;;;;;;;;;;;;;;9.50;59.58;101098.09;5329472;32;35404;-70
2022/12/04 10:37:29;;;;;;;;;;;;;;;10.12;57.88;101106.22;5321462;32;34775;-74
2022/12/04 10:40:31;;;;;;;;;;;;;;;9.17;60.39;101094.50;5336040;32;34906;-69
2022/12/04 10:43:39;;;;;;;;;;;;;;;9.44;59.28;101099.09;5319812;32;35288;-73
2022/12/04 10:46:41;;;;;;;;;;;;;;;9.00;60.14;101091.37;5340269;32;44380;-74
2022/12/04 10:49:47;;;;;;;;;;;;;;;9.68;58.32;101092.44;5337162;32;36310;-69
2022/12/04 10:52:49;;;;;;;;;;;;;;;9.74;57.68;101084.41;5354871;32;34797;-69
2022/12/04 10:55:51;;;;;;;;;;;;;;;10.55;55.84;101082.28;5321120;32;36248;-73
2022/12/04 10:59:03;;;;;;;;;;;;;;;10.29;55.63;101074.25;5326322;32;35409;-74
2022/12/04 11:02:22;;;;;;;;;;;;;;;10.62;55.80;101064.56;5342243;32;33247;-72
2022/12/04 11:05:25;;;;;;;;;;;;;;;10.46;55.78;101058.91;5327532;32;35741;-74
2022/12/04 11:08:47;;;;;;;;;;;;;;;10.65;54.66;101050.50;5341792;32;34664;-71
2022/12/04 11:11:49;;;;;;;;;;;;;;;10.12;56.31;101061.56;5350401;32;36054;-69
2022/12/04 11:15:06;;;;;;;;;;;;;;;11.48;52.60;101036.53;5326763;32;34834;-70
2022/12/04 11:18:11;;;;;;;;;;;;;;;11.11;52.16;101042.09;5351797;32;46454;-69
2022/12/04 11:21:14;;;;;;;;;;;;;;;11.53;52.07;101033.75;5337981;32;35001;-70
2022/12/04 11:24:27;;;;;;;;;;;;;;;11.35;52.76;101024.69;5345885;32;35379;-71
2022/12/04 11:27:31;;;;;;;;;;;;;;;11.71;52.25;101024.38;5337499;32;34253;-75
2022/12/04 11:30:34;;;;;;;;;;;;;;;11.37;52.55;101021.09;5326371;32;34899;-70
2022/12/04 11:33:44;;;;;;;;;;;;;;;11.90;51.18;101014.97;5353579;32;35475;-70
2022/12/04 11:36:49;;;;;;;;;;;;;;;12.59;48.81;101025.69;5324918;32;44614;-75
2022/12/04 11:39:51;;;;;;;;;;;;;;;12.54;48.57;101012.66;5347231;32;34329;-74
2022/12/04 11:43:25;;;;;;;;;;;;;;;11.70;50.78;101018.25;5338863;32;34543;-69
2022/12/04 11:46:29;;;;;;;;;;;;;;;12.58;48.81;101011.62;5313380;32;35015;-70
2022/12/04 11:49:31;;;;;;;;;;;;;;;11.94;50.33;101006.06;5352067;32;35228;-75
2022/12/04 11:52:49;;;;;;;;;;;;;;;11.47;51.57;100994.47;5324107;32;34966;-74
2022/12/04 11:56:03;;;;;;;;;;;;;;;12.07;49.72;100995.94;5346838;32;34734;-74
2022/12/04 11:59:17;;;;;;;;;;;;;;;11.09;51.98;100988.69;5325623;32;34970;-68
2022/12/04 12:02:39;;;;;;;;;;;;;;;12.18;49.52;100993.78;5323991;32;35406;-70
2022/12/04 12:06:03;;;;;;;;;;;;;;;12.19;49.46;100988.47;5341852;32;45463;-74
2022/12/04 12:09:15;;;;;;;;;;;;;;;11.97;49.58;100973.47;5324933;32;34162;-74
2022/12/04 12:12:18;;;;;;;;;;;;;;;12.27;48.55;100966.22;5331573;32;46887;-69
2022/12/04 12:15:36;;;;;;;;;;;;;;;12.40;48.06;100981.53;5336305;32;34911;-73
2022/12/04 12:18:49;;;;;;;;;;;;;;;12.20;49.53;100981.41;5334397;32;46926;-69
2022/12/04 12:22:07;;;;;;;;;;;;;;;11.50;51.09;100982.06;5346026;32;34718;-74
2022/12/04 12:25:21;;;;;;;;;;;;;;;12.15;49.15;100983.34;5328041;32;45338;-73
2022/12/04 12:28:26;;;;;;;;;;;;;;;12.29;49.26;100986.34;5346743;32;35745;-73
2022/12/04 12:31:28;;;;;;;;;;;;;;;11.99;50.24;100983.06;5336022;32;34385;-69
2022/12/04 12:34:30;;;;;;;;;;;;;;;12.54;49.01;100988.06;5324676;32;34995;-69
2022/12/04 12:37:38;;;;;;;;;;;;;;;12.47;48.61;100985.66;5340119;32;35034;-74
2022/12/04 12:40:44;;;;;;;;;;;;;;;12.42;49.49;100987.59;5336060;32;45232;-73
2022/12/04 12:44:15;;;;;;;;;;;;;;;11.14;52.68;100986.75;5347352;32;35119;-69
2022/12/04 12:47:18;;;;;;;;;;;;;;;12.11;50.76;100981.75;5291094;32;44987;-69
2022/12/04 12:50:21;;;;;;;;;;;;;;;12.74;48.51;100980.25;5319267;32;35425;-70
2022/12/04 12:53:24;;;;;;;;;;;;;;;12.72;48.60;100982.09;5340177;32;34356;-73
2022/12/04 12:56:30;;;;;;;;;;;;;;;12.69;48.69;100984.88;5326764;32;34735;-74
2022/12/04 12:59:32;;;;;;;;;;;;;;;12.56;48.60;100975.69;5340427;32;35375;-75
2022/12/04 13:02:52;;;;;;;;;;;;;;;12.30;49.77;100960.84;5325346;32;34224;-73
2022/12/04 13:05:55;;;;;;;;;;;;;;;12.58;49.21;100971.22;5323458;32;35490;-73
2022/12/04 13:09:03;;;;;;;;;;;;;;;12.89;48.22;100969.13;5352711;32;34917;-73
2022/12/04 13:12:07;;;;;;;;;;;;;;;12.29;49.72;100967.03;5323747;32;36404;-74
2022/12/04 13:15:16;;;;;;;;;;;;;;;12.80;48.48;100966.81;5340321;32;44785;-73
2022/12/04 13:18:50;;;;;;;;;;;;;;;12.35;49.53;100969.44;5322757;32;35458;-73
2022/12/04 13:22:11;;;;;;;;;;;;;;;12.03;50.57;100966.19;5311760;32;34507;-74
2022/12/04 13:25:22;;;;;;;;;;;;;;;12.53;49.61;100973.16;5325597;32;44700;-69
2022/12/04 13:28:24;;;;;;;;;;;;;;;12.34;49.88;100963.31;5325376;32;35037;-69
2022/12/04 13:31:41;;;;;;;;;;;;;;;12.32;49.81;100980.09;5340638;32;35591;-69
2022/12/04 13:34:43;;;;;;;;;;;;;;;11.73;51.36;100981.28;5328310;32;45961;-70
2022/12/04 13:37:51;;;;;;;;;;;;;;;11.68;51.71;100998.16;5323319;32;34742;-74
2022/12/04 13:40:54;;;;;;;;;;;;;;;11.92;51.36;100995.56;5334270;32;34964;-68
2022/12/04 13:43:56;;;;;;;;;;;;;;;11.88;51.58;100987.81;5317737;32;35507;-74
2022/12/04 13:47:04;;;;;;;;;;;;;;;11.66;51.83;100996.44;5339118;32;35494;-68
2022/12/04 13:50:05;;;;;;;;;;;;;;;11.54;52.26;100985.47;5322955;32;34623;-69
2022/12/04 13:53:27;;;;;;;;;;;;;;;11.33;52.89;100987.00;5332667;32;42412;-73
2022/12/04 13:56:29;;;;;;;;;;;;;;;11.12;53.67;100997.31;5350210;32;34218;-69
2022/12/04 13:59:35;;;;;;;;;;;;;;;11.09;54.16;100992.16;5334133;32;35142;-73
2022/12/04 14:02:37;;;;;;;;;;;;;;;11.07;54.02;100988.72;5350640;32;43717;-70
2022/12/04 14:05:41;;;;;;;;;;;;;;;11.12;54.25;100996.47;5335415;32;35105;-70
2022/12/04 14:08:42;;;;;;;;;;;;;;;11.13;54.31;101008.69;5325617;32;35855;-70
2022/12/04 14:11:45;;;;;;;;;;;;;;;11.12;54.46;100999.94;5325430;32;34746;-73
2022/12/04 14:14:51;;;;;;;;;;;;;;;10.89;54.84;101015.59;5318741;32;34976;-69
2022/12/04 14:18:00;;;;;;;;;;;;;;;10.88;55.31;101020.88;5339136;32;35386;-69
2022/12/04 14:21:04;;;;;;;;;;;;;;;10.69;56.08;101010.06;5317666;32;35148;-73
2022/12/04 14:24:14;;;;;;;;;;;;;;;10.78;56.15;101015.06;5345936;32;34733;-69
2022/12/04 14:27:35;;;;;;;;;;;;;;;11.01;55.63;101009.09;5337278;32;45374;-69
2022/12/04 14:30:37;;;;;;;;;;;;;;;11.16;55.13;101019.16;5347480;32;36249;-69
2022/12/04 14:33:43;;;;;;;;;;;;;;;10.85;56.58;101014.81;5356963;32;45229;-70
2022/12/04 14:36:45;;;;;;;;;;;;;;;11.22;55.25;101015.47;5339830;32;35578;-73
2022/12/04 14:39:47;;;;;;;;;;;;;;;11.19;55.15;101011.13;5353987;32;34503;-73
2022/12/04 14:42:49;;;;;;;;;;;;;;;11.17;55.43;101005.06;5326983;32;34876;-70
2022/12/04 14:45:55;;;;;;;;;;;;;;;11.10;55.78;101008.81;5345299;32;34184;-69
2022/12/04 14:49:17;;;;;;;;;;;;;;;11.08;56.09;101008.00;5336421;32;35623;-73
2022/12/04 14:52:30;;;;;;;;;;;;;;;10.45;57.17;101004.62;5347344;32;35470;-69
2022/12/04 14:55:44;;;;;;;;;;;;;;;11.22;55.64;100999.69;5349192;32;35539;-74
2022/12/04 14:58:46;;;;;;;;;;;;;;;11.20;55.67;101002.34;5318617;32;44721;-75
2022/12/04 15:01:48;;;;;;;;;;;;;;;11.27;55.40;101019.69;5342723;32;35915;-71
2022/12/04 15:04:50;;;;;;;;;;;;;;;11.17;55.78;101007.72;5334012;32;35037;-69
2022/12/04 15:07:53;;;;;;;;;;;;;;;11.11;56.24;101015.78;5330926;32;37594;-69
2022/12/04 15:14:16;;;;;;;;;;;;;;;11.36;55.43;101019.38;5337241;32;44560;-69
2022/12/04 15:17:18;;;;;;;;;;;;;;;10.91;56.38;101021.66;5346400;32;34256;-70
2022/12/04 15:20:20;;;;;;;;;;;;;;;11.32;55.53;101022.12;5331127;32;34282;-73
2022/12/04 15:23:42;;;;;;;;;;;;;;;11.54;54.93;101017.91;5326653;32;34453;-73
2022/12/04 15:26:45;;;;;;;;;;;;;;;11.33;55.42;101014.22;5346948;32;45351;-75
2022/12/04 15:29:48;;;;;;;;;;;;;;;11.23;55.90;101012.78;5334350;32;35517;-69
2022/12/04 15:32:50;;;;;;;;;;;;;;;11.50;55.09;101020.69;5344457;32;34943;-70
2022/12/04 15:36:03;;;;;;;;;;;;;;;11.69;54.54;101019.16;5318784;32;34317;-69
2022/12/04 15:39:04;;;;;;;;;;;;;;;11.66;54.46;101027.19;5341116;32;34811;-75
2022/12/04 15:42:17;;;;;;;;;;;;;;;11.64;54.49;101019.31;5347376;32;35316;-73
2022/12/04 15:45:19;;;;;;;;;;;;;;;11.55;54.72;101021.41;5327645;32;34377;-74
2022/12/04 15:48:22;;;;;;;;;;;;;;;11.55;54.62;101034.56;5342202;32;34479;-73
2022/12/04 15:51:24;;;;;;;;;;;;;;;11.62;54.63;101022.91;5324705;32;35773;-75
2022/12/04 15:54:26;;;;;;;;;;;;;;;11.50;55.07;101024.19;5344582;32;35039;-69
2022/12/04 15:57:29;;;;;;;;;;;;;;;11.63;54.71;101024.63;5324456;32;35073;-69
2022/12/04 16:00:32;;;;;;;;;;;;;;;11.25;55.75;101036.41;5341635;32;35000;-75
2022/12/04 16:03:40;;;;;;;;;;;;;;;11.37;55.60;101026.34;5337999;32;35423;-74
2022/12/04 16:06:45;;;;;;;;;;;;;;;11.14;56.28;101023.56;5324678;32;47636;-74
2022/12/04 16:09:51;;;;;;;;;;;;;;;11.19;56.25;101032.19;5354708;32;35208;-75
2022/12/04 16:12:53;;;;;;;;;;;;;;;11.35;55.88;101019.41;5344599;32;36672;-73